sensor_id;sensor_type;location;lat;lon;timestamp;pressure;altitude;pressure_sealevel;temperature;humidity
77823;BME280;67013;49.730;17.292;2023-03-14T00:00:21;96862.29;;;10.22;54.92
77823;BME280;67013;49.730;17.292;2023-03-14T00:02:54;96859.34;;;10.18;54.97
77823;BME280;67013;49.730;17.292;2023-03-14T00:08:45;96833.19;;;10.13;55.20
77823;BME280;67013;49.730;17.292;2023-03-14T00:11:16;96828.48;;;10.11;55.25
77823;BME280;67013;49.730;17.292;2023-03-14T00:13:47;96819.67;;;10.08;55.40
77823;BME280;67013;49.730;17.292;2023-03-14T00:16:17;96807.77;;;10.07;55.45
77823;BME280;67013;49.730;17.292;2023-03-14T00:18:47;96809.71;;;10.08;55.41
77823;BME280;67013;49.730;17.292;2023-03-14T00:21:17;96812.86;;;10.08;55.45
77823;BME280;67013;49.730;17.292;2023-03-14T00:23:47;96805.95;;;10.08;55.38
77823;BME280;67013;49.730;17.292;2023-03-14T00:26:18;96809.60;;;10.08;55.41
77823;BME280;67013;49.730;17.292;2023-03-14T00:28:50;96807.69;;;10.06;55.51
77823;BME280;67013;49.730;17.292;2023-03-14T00:31:20;96797.06;;;10.02;55.47
77823;BME280;67013;49.730;17.292;2023-03-14T00:33:52;96794.04;;;10.00;55.61
77823;BME280;67013;49.730;17.292;2023-03-14T00:36:22;96792.08;;;9.97;55.79
77823;BME280;67013;49.730;17.292;2023-03-14T00:38:52;96790.30;;;9.93;55.74
77823;BME280;67013;49.730;17.292;2023-03-14T00:41:23;96783.44;;;9.89;55.92
77823;BME280;67013;49.730;17.292;2023-03-14T00:43:53;96778.83;;;9.86;56.08
77823;BME280;67013;49.730;17.292;2023-03-14T00:46:22;96779.52;;;9.82;56.12
77823;BME280;67013;49.730;17.292;2023-03-14T00:48:52;96778.94;;;9.80;56.18
77823;BME280;67013;49.730;17.292;2023-03-14T00:51:21;96771.41;;;9.77;56.21
77823;BME280;67013;49.730;17.292;2023-03-14T00:53:51;96765.60;;;9.76;56.15
77823;BME280;67013;49.730;17.292;2023-03-14T00:56:20;96765.49;;;9.73;56.18
77823;BME280;67013;49.730;17.292;2023-03-14T00:58:50;96772.66;;;9.71;56.24
77823;BME280;67013;49.730;17.292;2023-03-14T01:01:22;96769.79;;;9.68;56.17
77823;BME280;67013;49.730;17.292;2023-03-14T01:03:53;96770.38;;;9.66;56.22
77823;BME280;67013;49.730;17.292;2023-03-14T01:06:25;96769.92;;;9.63;56.35
77823;BME280;67013;49.730;17.292;2023-03-14T01:08:55;96775.46;;;9.62;56.48
77823;BME280;67013;49.730;17.292;2023-03-14T01:11:27;96772.56;;;9.59;56.52
77823;BME280;67013;49.730;17.292;2023-03-14T01:13:57;96768.52;;;9.56;56.74
77823;BME280;67013;49.730;17.292;2023-03-14T01:16:28;96763.51;;;9.52;56.85
77823;BME280;67013;49.730;17.292;2023-03-14T01:18:58;96767.94;;;9.49;57.01
77823;BME280;67013;49.730;17.292;2023-03-14T01:21:29;96769.25;;;9.46;57.35
77823;BME280;67013;49.730;17.292;2023-03-14T01:24:00;96766.39;;;9.44;57.47
77823;BME280;67013;49.730;17.292;2023-03-14T01:26:31;96759.46;;;9.42;57.76
77823;BME280;67013;49.730;17.292;2023-03-14T01:29:02;96751.42;;;9.37;58.11
77823;BME280;67013;49.730;17.292;2023-03-14T01:31:32;96743.24;;;9.32;58.15
77823;BME280;67013;49.730;17.292;2023-03-14T01:34:01;96742.73;;;9.26;58.36
77823;BME280;67013;49.730;17.292;2023-03-14T01:36:31;96744.81;;;9.20;58.39
77823;BME280;67013;49.730;17.292;2023-03-14T01:39:00;96745.49;;;9.17;58.54
77823;BME280;67013;49.730;17.292;2023-03-14T01:41:30;96741.67;;;9.13;58.54
77823;BME280;67013;49.730;17.292;2023-03-14T01:43:59;96743.56;;;9.09;58.59
77823;BME280;67013;49.730;17.292;2023-03-14T01:46:37;96734.89;;;9.06;58.83
77823;BME280;67013;49.730;17.292;2023-03-14T01:49:12;96729.45;;;9.05;59.01
77823;BME280;67013;49.730;17.292;2023-03-14T01:51:47;96724.31;;;9.04;58.96
77823;BME280;67013;49.730;17.292;2023-03-14T01:54:22;96721.70;;;9.02;59.09
77823;BME280;67013;49.730;17.292;2023-03-14T01:56:55;96715.36;;;9.00;59.19
77823;BME280;67013;49.730;17.292;2023-03-14T01:59:26;96699.45;;;8.98;59.40
77823;BME280;67013;49.730;17.292;2023-03-14T02:01:58;96687.03;;;8.93;59.38
77823;BME280;67013;49.730;17.292;2023-03-14T02:04:30;96689.09;;;8.90;59.44
77823;BME280;67013;49.730;17.292;2023-03-14T02:07:09;96691.83;;;8.88;59.45
77823;BME280;67013;49.730;17.292;2023-03-14T02:09:40;96668.48;;;8.88;59.41
77823;BME280;67013;49.730;17.292;2023-03-14T02:12:11;96656.27;;;8.89;59.50
77823;BME280;67013;49.730;17.292;2023-03-14T02:14:43;96655.02;;;8.96;59.28
77823;BME280;67013;49.730;17.292;2023-03-14T02:17:17;96660.23;;;9.03;59.01
77823;BME280;67013;49.730;17.292;2023-03-14T02:19:53;96676.16;;;9.07;58.86
77823;BME280;67013;49.730;17.292;2023-03-14T02:22:26;96682.64;;;9.10;58.75
77823;BME280;67013;49.730;17.292;2023-03-14T02:24:59;96692.30;;;9.12;58.52
77823;BME280;67013;49.730;17.292;2023-03-14T02:27:32;96695.46;;;9.18;58.34
77823;BME280;67013;49.730;17.292;2023-03-14T02:30:04;96697.73;;;9.21;58.19
77823;BME280;67013;49.730;17.292;2023-03-14T02:32:36;96698.98;;;9.25;58.02
77823;BME280;67013;49.730;17.292;2023-03-14T02:35:10;96697.42;;;9.28;58.04
77823;BME280;67013;49.730;17.292;2023-03-14T02:37:46;96703.81;;;9.29;57.82
77823;BME280;67013;49.730;17.292;2023-03-14T02:40:17;96717.94;;;9.30;57.81
77823;BME280;67013;49.730;17.292;2023-03-14T02:42:46;96753.65;;;9.30;57.88
77823;BME280;67013;49.730;17.292;2023-03-14T02:45:39;96789.27;;;9.28;58.24
77823;BME280;67013;49.730;17.292;2023-03-14T02:48:20;96802.94;;;9.22;58.46
77823;BME280;67013;49.730;17.292;2023-03-14T02:50:52;96806.29;;;9.14;58.74
77823;BME280;67013;49.730;17.292;2023-03-14T02:53:25;96815.60;;;9.05;58.90
77823;BME280;67013;49.730;17.292;2023-03-14T02:55:55;96821.52;;;8.97;59.16
77823;BME280;67013;49.730;17.292;2023-03-14T02:58:25;96825.50;;;8.88;59.31
77823;BME280;67013;49.730;17.292;2023-03-14T03:00:55;96838.12;;;8.79;59.46
77823;BME280;67013;49.730;17.292;2023-03-14T03:03:25;96843.83;;;8.71;59.60
77823;BME280;67013;49.730;17.292;2023-03-14T03:05:56;96835.99;;;8.64;59.79
77823;BME280;67013;49.730;17.292;2023-03-14T03:08:27;96833.39;;;8.52;60.22
77823;BME280;67013;49.730;17.292;2023-03-14T03:10:57;96824.98;;;8.42;60.23
77823;BME280;67013;49.730;17.292;2023-03-14T03:13:27;96812.94;;;8.37;60.46
77823;BME280;67013;49.730;17.292;2023-03-14T03:15:57;96800.31;;;8.35;60.62
77823;BME280;67013;49.730;17.292;2023-03-14T03:18:26;96791.40;;;8.34;60.70
77823;BME280;67013;49.730;17.292;2023-03-14T03:20:56;96797.41;;;8.32;60.65
77823;BME280;67013;49.730;17.292;2023-03-14T03:23:28;96806.50;;;8.31;60.82
77823;BME280;67013;49.730;17.292;2023-03-14T03:25:58;96791.27;;;8.31;60.94
77823;BME280;67013;49.730;17.292;2023-03-14T03:28:28;96772.70;;;8.31;60.86
77823;BME280;67013;49.730;17.292;2023-03-14T03:30:57;96772.90;;;8.29;60.97
77823;BME280;67013;49.730;17.292;2023-03-14T03:33:27;96773.52;;;8.26;61.07
77823;BME280;67013;49.730;17.292;2023-03-14T03:35:56;96768.63;;;8.23;61.29
77823;BME280;67013;49.730;17.292;2023-03-14T03:38:25;96758.55;;;8.19;61.30
77823;BME280;67013;49.730;17.292;2023-03-14T03:40:55;96760.80;;;8.16;61.38
77823;BME280;67013;49.730;17.292;2023-03-14T03:43:24;96760.99;;;8.11;61.23
77823;BME280;67013;49.730;17.292;2023-03-14T03:45:54;96740.52;;;8.06;61.49
77823;BME280;67013;49.730;17.292;2023-03-14T03:48:23;96740.30;;;8.01;61.75
77823;BME280;67013;49.730;17.292;2023-03-14T03:50:53;96745.38;;;7.96;61.71
77823;BME280;67013;49.730;17.292;2023-03-14T03:53:22;96732.85;;;7.91;61.83
77823;BME280;67013;49.730;17.292;2023-03-14T03:55:52;96732.27;;;7.86;61.77
77823;BME280;67013;49.730;17.292;2023-03-14T03:58:21;96735.60;;;7.80;61.92
77823;BME280;67013;49.730;17.292;2023-03-14T04:00:51;96739.63;;;7.73;62.03
77823;BME280;67013;49.730;17.292;2023-03-14T04:03:20;96750.64;;;7.68;62.27
77823;BME280;67013;49.730;17.292;2023-03-14T04:05:59;96761.70;;;7.62;62.51
77823;BME280;67013;49.730;17.292;2023-03-14T04:08:29;96761.71;;;7.58;62.80
77823;BME280;67013;49.730;17.292;2023-03-14T04:11:00;96753.23;;;7.56;62.66
77823;BME280;67013;49.730;17.292;2023-03-14T04:13:30;96748.98;;;7.55;62.83
77823;BME280;67013;49.730;17.292;2023-03-14T04:15:59;96739.24;;;7.56;62.89
77823;BME280;67013;49.730;17.292;2023-03-14T04:18:29;96713.55;;;7.55;62.83
77823;BME280;67013;49.730;17.292;2023-03-14T04:20:59;96707.98;;;7.54;62.91
77823;BME280;67013;49.730;17.292;2023-03-14T04:23:28;96711.31;;;7.51;62.94
77823;BME280;67013;49.730;17.292;2023-03-14T04:25:57;96711.26;;;7.48;63.30
77823;BME280;67013;49.730;17.292;2023-03-14T04:28:27;96709.25;;;7.45;63.20
77823;BME280;67013;49.730;17.292;2023-03-14T04:30:56;96705.25;;;7.43;63.42
77823;BME280;67013;49.730;17.292;2023-03-14T04:33:26;96717.58;;;7.41;63.56
77823;BME280;67013;49.730;17.292;2023-03-14T04:35:56;96716.46;;;7.40;63.58
77823;BME280;67013;49.730;17.292;2023-03-14T04:38:25;96703.35;;;7.37;63.66
77823;BME280;67013;49.730;17.292;2023-03-14T04:40:55;96703.44;;;7.34;63.57
77823;BME280;67013;49.730;17.292;2023-03-14T04:43:24;96699.14;;;7.30;63.62
77823;BME280;67013;49.730;17.292;2023-03-14T04:45:55;96687.84;;;7.25;63.81
77823;BME280;67013;49.730;17.292;2023-03-14T04:48:25;96675.09;;;7.20;64.17
77823;BME280;67013;49.730;17.292;2023-03-14T04:50:55;96671.50;;;7.16;64.22
77823;BME280;67013;49.730;17.292;2023-03-14T04:53:24;96671.72;;;7.12;64.34
77823;BME280;67013;49.730;17.292;2023-03-14T04:55:56;96661.77;;;7.06;64.44
77823;BME280;67013;49.730;17.292;2023-03-14T04:58:25;96655.98;;;7.03;64.70
77823;BME280;67013;49.730;17.292;2023-03-14T05:00:55;96635.27;;;7.01;64.65
77823;BME280;67013;49.730;17.292;2023-03-14T05:03:25;96632.86;;;6.99;64.62
77823;BME280;67013;49.730;17.292;2023-03-14T05:05:54;96638.15;;;6.99;64.75
77823;BME280;67013;49.730;17.292;2023-03-14T05:08:25;96622.41;;;7.00;64.64
77823;BME280;67013;49.730;17.292;2023-03-14T05:10:56;96602.35;;;7.00;64.75
77823;BME280;67013;49.730;17.292;2023-03-14T05:13:26;96596.54;;;6.99;64.63
77823;BME280;67013;49.730;17.292;2023-03-14T05:16:04;96593.13;;;6.99;65.10
77823;BME280;67013;49.730;17.292;2023-03-14T05:18:34;96584.55;;;7.02;64.88
77823;BME280;67013;49.730;17.292;2023-03-14T05:21:05;96583.11;;;7.04;64.75
77823;BME280;67013;49.730;17.292;2023-03-14T05:23:35;96582.48;;;7.06;64.61
77823;BME280;67013;49.730;17.292;2023-03-14T05:26:04;96567.73;;;7.09;64.79
77823;BME280;67013;49.730;17.292;2023-03-14T05:28:34;96556.52;;;7.11;64.65
77823;BME280;67013;49.730;17.292;2023-03-14T05:31:07;96552.81;;;7.13;64.59
77823;BME280;67013;49.730;17.292;2023-03-14T05:33:37;96550.34;;;7.16;64.21
77823;BME280;67013;49.730;17.292;2023-03-14T05:36:08;96548.13;;;7.21;64.12
77823;BME280;67013;49.730;17.292;2023-03-14T05:38:37;96552.08;;;7.29;63.88
77823;BME280;67013;49.730;17.292;2023-03-14T05:41:08;96551.18;;;7.39;63.52
77823;BME280;67013;49.730;17.292;2023-03-14T05:43:37;96542.20;;;7.49;63.33
77823;BME280;67013;49.730;17.292;2023-03-14T05:46:09;96530.69;;;7.59;63.07
77823;BME280;67013;49.730;17.292;2023-03-14T05:48:38;96527.73;;;7.69;62.71
77823;BME280;67013;49.730;17.292;2023-03-14T05:51:08;96533.42;;;7.76;62.30
77823;BME280;67013;49.730;17.292;2023-03-14T05:53:37;96543.52;;;7.86;61.87
77823;BME280;67013;49.730;17.292;2023-03-14T05:56:08;96549.30;;;7.96;61.47
77823;BME280;67013;49.730;17.292;2023-03-14T05:58:38;96551.15;;;8.08;61.22
77823;BME280;67013;49.730;17.292;2023-03-14T06:01:08;96559.70;;;8.20;60.85
77823;BME280;67013;49.730;17.292;2023-03-14T06:03:38;96569.00;;;8.34;60.53
77823;BME280;67013;49.730;17.292;2023-03-14T06:06:08;96581.58;;;8.48;60.28
77823;BME280;67013;49.730;17.292;2023-03-14T06:08:37;96578.51;;;8.60;59.79
77823;BME280;67013;49.730;17.292;2023-03-14T06:11:07;96591.88;;;8.71;59.68
77823;BME280;67013;49.730;17.292;2023-03-14T06:13:37;96599.94;;;8.81;59.52
77823;BME280;67013;49.730;17.292;2023-03-14T06:16:08;96596.13;;;8.96;59.05
77823;BME280;67013;49.730;17.292;2023-03-14T06:18:38;96601.31;;;9.26;58.41
77823;BME280;67013;49.730;17.292;2023-03-14T06:21:08;96596.91;;;9.66;57.40
77823;BME280;67013;49.730;17.292;2023-03-14T06:23:38;96601.74;;;9.96;57.00
77823;BME280;67013;49.730;17.292;2023-03-14T06:26:07;96602.83;;;10.50;56.17
77823;BME280;67013;49.730;17.292;2023-03-14T06:28:37;96619.90;;;10.86;55.18
77823;BME280;67013;49.730;17.292;2023-03-14T06:31:07;96645.07;;;11.25;54.34
77823;BME280;67013;49.730;17.292;2023-03-14T06:33:36;96668.18;;;11.75;53.17
77823;BME280;67013;49.730;17.292;2023-03-14T06:36:07;96673.57;;;12.09;53.04
77823;BME280;67013;49.730;17.292;2023-03-14T06:38:37;96666.90;;;12.25;52.68
77823;BME280;67013;49.730;17.292;2023-03-14T06:41:07;96660.95;;;12.50;52.16
77823;BME280;67013;49.730;17.292;2023-03-14T06:43:36;96658.29;;;13.01;50.77
77823;BME280;67013;49.730;17.292;2023-03-14T06:46:06;96658.04;;;13.59;49.59
77823;BME280;67013;49.730;17.292;2023-03-14T06:48:36;96656.96;;;14.12;48.70
77823;BME280;67013;49.730;17.292;2023-03-14T06:51:06;96664.92;;;14.89;47.70
77823;BME280;67013;49.730;17.292;2023-03-14T06:53:36;96670.47;;;15.92;46.16
77823;BME280;67013;49.730;17.292;2023-03-14T06:56:07;96662.66;;;16.95;43.12
77823;BME280;67013;49.730;17.292;2023-03-14T06:58:36;96665.47;;;17.95;41.05
77823;BME280;67013;49.730;17.292;2023-03-14T07:01:10;96658.66;;;18.60;39.80
77823;BME280;67013;49.730;17.292;2023-03-14T07:03:46;96638.44;;;18.72;38.20
77823;BME280;67013;49.730;17.292;2023-03-14T07:06:15;96626.16;;;18.74;37.14
77823;BME280;67013;49.730;17.292;2023-03-14T07:08:45;96632.67;;;18.33;37.90
77823;BME280;67013;49.730;17.292;2023-03-14T07:11:14;96656.10;;;18.34;37.93
77823;BME280;67013;49.730;17.292;2023-03-14T07:13:44;96661.43;;;17.85;37.35
77823;BME280;67013;49.730;17.292;2023-03-14T07:16:13;96676.60;;;16.88;38.65
77823;BME280;67013;49.730;17.292;2023-03-14T07:18:43;96677.46;;;15.89;40.40
77823;BME280;67013;49.730;17.292;2023-03-14T07:21:13;96678.14;;;15.12;42.26
77823;BME280;67013;49.730;17.292;2023-03-14T07:23:42;96674.51;;;14.36;43.93
77823;BME280;67013;49.730;17.292;2023-03-14T07:26:11;96665.56;;;13.63;45.70
77823;BME280;67013;49.730;17.292;2023-03-14T07:28:41;96679.77;;;13.13;46.98
77823;BME280;67013;49.730;17.292;2023-03-14T07:31:11;96694.02;;;12.73;48.34
77823;BME280;67013;49.730;17.292;2023-03-14T07:33:41;96710.40;;;12.32;49.43
77823;BME280;67013;49.730;17.292;2023-03-14T07:36:11;96715.35;;;12.02;50.15
77823;BME280;67013;49.730;17.292;2023-03-14T07:38:40;96702.65;;;11.81;50.94
77823;BME280;67013;49.730;17.292;2023-03-14T07:41:10;96688.10;;;11.63;51.78
77823;BME280;67013;49.730;17.292;2023-03-14T07:43:40;96679.35;;;11.44;52.71
77823;BME280;67013;49.730;17.292;2023-03-14T07:46:09;96674.07;;;11.25;53.25
77823;BME280;67013;49.730;17.292;2023-03-14T07:48:39;96668.86;;;11.07;53.99
77823;BME280;67013;49.730;17.292;2023-03-14T07:51:09;96658.92;;;10.87;54.94
77823;BME280;67013;49.730;17.292;2023-03-14T07:53:38;96660.27;;;10.67;55.56
77823;BME280;67013;49.730;17.292;2023-03-14T07:56:09;96663.19;;;10.51;55.81
77823;BME280;67013;49.730;17.292;2023-03-14T07:58:39;96658.70;;;10.40;55.95
77823;BME280;67013;49.730;17.292;2023-03-14T08:01:08;96642.52;;;10.31;56.28
77823;BME280;67013;49.730;17.292;2023-03-14T08:03:38;96656.85;;;10.24;56.54
77823;BME280;67013;49.730;17.292;2023-03-14T08:06:08;96667.83;;;10.17;57.15
77823;BME280;67013;49.730;17.292;2023-03-14T08:08:37;96667.41;;;10.11;57.35
77823;BME280;67013;49.730;17.292;2023-03-14T08:11:08;96679.09;;;10.05;57.97
77823;BME280;67013;49.730;17.292;2023-03-14T08:13:37;96688.45;;;9.98;58.15
77823;BME280;67013;49.730;17.292;2023-03-14T08:16:09;96676.05;;;9.92;58.48
77823;BME280;67013;49.730;17.292;2023-03-14T08:18:38;96655.05;;;9.86;58.60
77823;BME280;67013;49.730;17.292;2023-03-14T08:21:08;96662.05;;;9.83;58.95
77823;BME280;67013;49.730;17.292;2023-03-14T08:23:37;96663.15;;;9.85;58.93
77823;BME280;67013;49.730;17.292;2023-03-14T08:26:08;96661.19;;;9.87;59.10
77823;BME280;67013;49.730;17.292;2023-03-14T08:28:37;96672.78;;;9.87;59.58
77823;BME280;67013;49.730;17.292;2023-03-14T08:31:07;96692.05;;;9.87;59.61
77823;BME280;67013;49.730;17.292;2023-03-14T08:33:37;96690.25;;;9.90;59.84
77823;BME280;67013;49.730;17.292;2023-03-14T08:36:07;96678.95;;;9.96;59.90
77823;BME280;67013;49.730;17.292;2023-03-14T08:38:37;96666.90;;;10.04;59.72
77823;BME280;67013;49.730;17.292;2023-03-14T08:41:07;96654.42;;;10.15;59.62
77823;BME280;67013;49.730;17.292;2023-03-14T08:43:37;96643.68;;;10.31;59.28
77823;BME280;67013;49.730;17.292;2023-03-14T08:46:07;96637.89;;;10.40;59.14
77823;BME280;67013;49.730;17.292;2023-03-14T08:48:37;96637.54;;;10.42;59.03
77823;BME280;67013;49.730;17.292;2023-03-14T08:51:08;96645.60;;;10.45;59.01
77823;BME280;67013;49.730;17.292;2023-03-14T08:53:39;96644.52;;;10.43;59.20
77823;BME280;67013;49.730;17.292;2023-03-14T08:56:10;96636.61;;;10.39;59.38
77823;BME280;67013;49.730;17.292;2023-03-14T08:58:39;96637.73;;;10.35;59.63
77823;BME280;67013;49.730;17.292;2023-03-14T09:01:12;96635.77;;;10.27;59.69
77823;BME280;67013;49.730;17.292;2023-03-14T09:03:42;96646.95;;;10.19;59.90
77823;BME280;67013;49.730;17.292;2023-03-14T09:06:11;96643.84;;;10.12;60.26
77823;BME280;67013;49.730;17.292;2023-03-14T09:08:41;96642.42;;;10.05;60.30
77823;BME280;67013;49.730;17.292;2023-03-14T09:11:11;96649.48;;;9.98;60.52
77823;BME280;67013;49.730;17.292;2023-03-14T09:13:40;96658.82;;;9.92;60.74
77823;BME280;67013;49.730;17.292;2023-03-14T09:16:11;96662.71;;;9.87;61.21
77823;BME280;67013;49.730;17.292;2023-03-14T09:18:40;96672.42;;;9.84;61.62
77823;BME280;67013;49.730;17.292;2023-03-14T09:21:10;96687.13;;;9.79;61.78
77823;BME280;67013;49.730;17.292;2023-03-14T09:23:40;96691.19;;;9.75;62.15
77823;BME280;67013;49.730;17.292;2023-03-14T09:26:09;96698.83;;;9.71;62.49
77823;BME280;67013;49.730;17.292;2023-03-14T09:28:39;96701.83;;;9.67;62.81
77823;BME280;67013;49.730;17.292;2023-03-14T09:31:09;96708.86;;;9.63;62.96
77823;BME280;67013;49.730;17.292;2023-03-14T09:33:39;96711.06;;;9.62;63.30
77823;BME280;67013;49.730;17.292;2023-03-14T09:36:11;96716.41;;;9.60;63.92
77823;BME280;67013;49.730;17.292;2023-03-14T09:38:40;96712.17;;;9.57;64.68
77823;BME280;67013;49.730;17.292;2023-03-14T09:41:17;96704.04;;;9.51;65.36
77823;BME280;67013;49.730;17.292;2023-03-14T09:43:49;96706.64;;;9.48;65.71
77823;BME280;67013;49.730;17.292;2023-03-14T09:46:22;96707.20;;;9.46;66.51
77823;BME280;67013;49.730;17.292;2023-03-14T09:48:51;96712.45;;;9.42;67.05
77823;BME280;67013;49.730;17.292;2023-03-14T09:51:22;96716.08;;;9.38;66.89
77823;BME280;67013;49.730;17.292;2023-03-14T09:53:52;96722.59;;;9.35;67.07
77823;BME280;67013;49.730;17.292;2023-03-14T09:56:23;96721.41;;;9.33;67.82
77823;BME280;67013;49.730;17.292;2023-03-14T09:58:56;96722.82;;;9.30;68.77
77823;BME280;67013;49.730;17.292;2023-03-14T10:01:29;96726.58;;;9.25;69.61
77823;BME280;67013;49.730;17.292;2023-03-14T10:04:00;96716.95;;;9.18;70.14
77823;BME280;67013;49.730;17.292;2023-03-14T10:06:32;96718.39;;;9.15;70.94
77823;BME280;67013;49.730;17.292;2023-03-14T10:09:03;96725.63;;;9.14;70.62
77823;BME280;67013;49.730;17.292;2023-03-14T10:11:33;96731.81;;;9.11;70.85
77823;BME280;67013;49.730;17.292;2023-03-14T10:14:08;96731.13;;;9.05;71.29
77823;BME280;67013;49.730;17.292;2023-03-14T10:16:42;96735.36;;;9.01;71.75
77823;BME280;67013;49.730;17.292;2023-03-14T10:19:14;96738.52;;;8.97;71.74
77823;BME280;67013;49.730;17.292;2023-03-14T10:21:50;96748.38;;;8.91;71.83
77823;BME280;67013;49.730;17.292;2023-03-14T10:24:26;96752.21;;;8.86;72.52
77823;BME280;67013;49.730;17.292;2023-03-14T10:27:00;96753.04;;;8.80;73.33
77823;BME280;67013;49.730;17.292;2023-03-14T10:29:32;96758.65;;;8.76;73.60
77823;BME280;67013;49.730;17.292;2023-03-14T10:32:03;96747.42;;;8.72;73.70
77823;BME280;67013;49.730;17.292;2023-03-14T10:34:34;96749.13;;;8.66;74.25
77823;BME280;67013;49.730;17.292;2023-03-14T10:37:16;96754.08;;;8.64;74.72
77823;BME280;67013;49.730;17.292;2023-03-14T10:39:51;96749.10;;;8.61;74.81
77823;BME280;67013;49.730;17.292;2023-03-14T10:42:24;96746.02;;;8.62;75.36
77823;BME280;67013;49.730;17.292;2023-03-14T10:44:59;96743.45;;;8.66;75.14
77823;BME280;67013;49.730;17.292;2023-03-14T10:47:31;96742.02;;;8.65;75.66
77823;BME280;67013;49.730;17.292;2023-03-14T10:50:25;96742.40;;;8.61;76.56
77823;BME280;67013;49.730;17.292;2023-03-14T10:52:56;96733.75;;;8.55;77.04
77823;BME280;67013;49.730;17.292;2023-03-14T10:55:26;96733.23;;;8.53;77.67
77823;BME280;67013;49.730;17.292;2023-03-14T10:57:56;96727.58;;;8.50;77.70
77823;BME280;67013;49.730;17.292;2023-03-14T11:00:25;96733.13;;;8.46;78.43
77823;BME280;67013;49.730;17.292;2023-03-14T11:03:06;96731.96;;;8.42;78.57
77823;BME280;67013;49.730;17.292;2023-03-14T11:05:42;96728.54;;;8.37;78.79
77823;BME280;67013;49.730;17.292;2023-03-14T11:08:17;96723.11;;;8.36;78.92
77823;BME280;67013;49.730;17.292;2023-03-14T11:10:53;96725.58;;;8.34;79.02
77823;BME280;67013;49.730;17.292;2023-03-14T11:13:26;96724.81;;;8.33;78.83
77823;BME280;67013;49.730;17.292;2023-03-14T11:16:04;96730.69;;;8.31;78.79
77823;BME280;67013;49.730;17.292;2023-03-14T11:18:56;96734.18;;;8.32;78.43
77823;BME280;67013;49.730;17.292;2023-03-14T11:21:35;96727.25;;;8.34;78.54
77823;BME280;67013;49.730;17.292;2023-03-14T11:24:21;96717.57;;;8.36;78.07
77823;BME280;67013;49.730;17.292;2023-03-14T11:26:58;96716.31;;;8.39;77.86
77823;BME280;67013;49.730;17.292;2023-03-14T11:29:38;96713.77;;;8.42;77.93
77823;BME280;67013;49.730;17.292;2023-03-14T11:32:14;96714.73;;;8.44;77.72
77823;BME280;67013;49.730;17.292;2023-03-14T11:34:51;96704.64;;;8.51;77.71
77823;BME280;67013;49.730;17.292;2023-03-14T11:37:25;96697.05;;;8.60;77.64
77823;BME280;67013;49.730;17.292;2023-03-14T11:40:02;96690.95;;;8.72;77.46
77823;BME280;67013;49.730;17.292;2023-03-14T11:42:34;96692.85;;;8.83;77.24
77823;BME280;67013;49.730;17.292;2023-03-14T11:45:10;96693.42;;;8.88;76.67
77823;BME280;67013;49.730;17.292;2023-03-14T11:47:44;96692.44;;;8.91;76.87
77823;BME280;67013;49.730;17.292;2023-03-14T11:50:18;96696.14;;;8.92;77.10
77823;BME280;67013;49.730;17.292;2023-03-14T11:52:52;96699.67;;;8.90;77.35
77823;BME280;67013;49.730;17.292;2023-03-14T11:55:27;96698.81;;;8.86;77.10
77823;BME280;67013;49.730;17.292;2023-03-14T11:58:02;96694.92;;;8.81;77.47
77823;BME280;67013;49.730;17.292;2023-03-14T12:00:33;96693.23;;;8.75;77.77
77823;BME280;67013;49.730;17.292;2023-03-14T12:03:09;96695.55;;;8.69;78.34
77823;BME280;67013;49.730;17.292;2023-03-14T12:05:50;96688.60;;;8.63;78.68
77823;BME280;67013;49.730;17.292;2023-03-14T12:08:41;96682.45;;;8.57;79.29
77823;BME280;67013;49.730;17.292;2023-03-14T12:11:16;96668.45;;;8.53;79.65
77823;BME280;67013;49.730;17.292;2023-03-14T12:13:50;96662.27;;;8.48;80.06
77823;BME280;67013;49.730;17.292;2023-03-14T12:16:38;96663.41;;;8.45;80.18
77823;BME280;67013;49.730;17.292;2023-03-14T12:19:28;96673.89;;;8.44;80.52
77823;BME280;67013;49.730;17.292;2023-03-14T12:22:05;96671.77;;;8.46;80.95
77823;BME280;67013;49.730;17.292;2023-03-14T12:24:37;96672.73;;;8.51;81.07
77823;BME280;67013;49.730;17.292;2023-03-14T12:27:09;96676.21;;;8.55;80.61
77823;BME280;67013;49.730;17.292;2023-03-14T12:29:59;96680.08;;;8.60;80.92
77823;BME280;67013;49.730;17.292;2023-03-14T12:32:28;96673.82;;;8.66;80.88
77823;BME280;67013;49.730;17.292;2023-03-14T12:35:23;96669.70;;;8.67;81.22
77823;BME280;67013;49.730;17.292;2023-03-14T12:38:04;96658.07;;;8.71;81.14
77823;BME280;67013;49.730;17.292;2023-03-14T12:40:37;96646.02;;;8.74;81.22
77823;BME280;67013;49.730;17.292;2023-03-14T12:43:27;96641.09;;;8.76;81.38
77823;BME280;67013;49.730;17.292;2023-03-14T12:46:18;96635.46;;;8.83;81.06
77823;BME280;67013;49.730;17.292;2023-03-14T12:48:50;96627.19;;;8.92;81.02
77823;BME280;67013;49.730;17.292;2023-03-14T12:51:30;96634.83;;;9.02;80.73
77823;BME280;67013;49.730;17.292;2023-03-14T12:57:26;96642.27;;;9.15;80.43
77823;BME280;67013;49.730;17.292;2023-03-14T12:59:58;96638.26;;;9.21;80.14
77823;BME280;67013;49.730;17.292;2023-03-14T13:02:36;96633.63;;;9.28;80.23
77823;BME280;67013;49.730;17.292;2023-03-14T13:05:12;96637.34;;;9.38;79.96
77823;BME280;67013;49.730;17.292;2023-03-14T13:08:04;96642.98;;;9.50;79.76
77823;BME280;67013;49.730;17.292;2023-03-14T13:10:44;96637.69;;;9.59;79.64
77823;BME280;67013;49.730;17.292;2023-03-14T13:13:20;96641.55;;;9.71;79.47
77823;BME280;67013;49.730;17.292;2023-03-14T13:15:55;96643.55;;;9.76;79.28
77823;BME280;67013;49.730;17.292;2023-03-14T13:18:33;96639.49;;;9.78;79.19
77823;BME280;67013;49.730;17.292;2023-03-14T13:21:05;96647.04;;;9.82;79.18
77823;BME280;67013;49.730;17.292;2023-03-14T13:23:37;96642.87;;;9.92;79.15
77823;BME280;67013;49.730;17.292;2023-03-14T13:26:12;96641.66;;;9.97;78.56
77823;BME280;67013;49.730;17.292;2023-03-14T13:28:43;96651.30;;;9.98;78.60